Decoded Metar for KPLD ( in ) (IATA:) | Meteo·Mobile Aviation Weather
aviador You're here:

KPLD Decoded Metar

in
Report Time2019-04-19 18:15:00
UTC Time2019-04-19 18:22:22
Flight Rules ifr IFR
Wind020° at 18 Gusting to 23 kt
W.Decomp.*RWY 09: 6.2 kt HW 16.9 kt LCW
Visibility9999 m
Phenomena:N/A
Clouds:Overcast 008 Hf
Ceiling800 ft
Temp07°C
Dew Point07°C (100% RH)
AAT-0.2°C
QNH1004 hPa
Raw Report
KPLD 191815Z AUTO 02018G23KT 7SM OVC008 07/07 A2964 RMK AO2=

Extra information for KPLD:More info

Social comments